Time;durP1;ratioP1;P1;durP2;ratioP2;P2;SDS_P1;SDS_P2;PMS_P1;PMS_P2;Temp;Humidity;BMP_temperature;BMP_pressure;BME280_temperature;BME280_humidity;BME280_pressure;Samples;Min_cycle;Max_cycle;Signal;HPM_P1;HPM_P2
2021/06/28 00:01:30;;;;;;;4.13;2.20;;;19.00;99.90;;;;;;5007795;28;20030;-74
2021/06/28 00:03:56;;;;;;;3.75;2.13;;;19.00;99.90;;;;;;5022983;28;20022;-74
2021/06/28 00:06:21;;;;;;;3.67;1.98;;;18.90;99.90;;;;;;5008177;28;20095;-73
2021/06/28 00:08:48;;;;;;;3.28;1.98;;;18.90;99.90;;;;;;5007401;28;20504;-75
2021/06/28 00:11:13;;;;;;;4.50;2.17;;;18.90;99.90;;;;;;5008063;28;20114;-75
2021/06/28 00:13:42;;;;;;;5.95;2.25;;;18.80;99.90;;;;;;5022399;28;20037;-75
2021/06/28 00:16:07;;;;;;;4.30;2.13;;;18.80;99.90;;;;;;5022828;28;20042;-73
2021/06/28 00:18:33;;;;;;;4.47;2.58;;;18.80;99.90;;;;;;5022935;28;20110;-72
2021/06/28 00:21:00;;;;;;;5.75;2.40;;;18.80;99.90;;;;;;5007572;28;20409;-74
2021/06/28 00:23:25;;;;;;;2.72;2.25;;;18.80;99.90;;;;;;5024930;28;20045;-72
2021/06/28 00:25:51;;;;;;;7.80;2.45;;;18.60;99.90;;;;;;5026989;28;20029;-74
2021/06/28 00:28:17;;;;;;;3.85;1.90;;;18.70;99.90;;;;;;5012538;28;20039;-74
2021/06/28 00:30:44;;;;;;;5.07;2.55;;;18.60;99.90;;;;;;5007912;28;20031;-72
2021/06/28 00:33:13;;;;;;;3.03;1.77;;;18.60;99.90;;;;;;5023139;28;20026;-75
2021/06/28 00:35:40;;;;;;;3.85;2.00;;;18.60;99.90;;;;;;5007334;28;20026;-76
2021/06/28 00:38:07;;;;;;;3.03;1.98;;;18.60;99.90;;;;;;5007749;28;20134;-72
2021/06/28 00:40:34;;;;;;;4.80;2.05;;;18.60;99.90;;;;;;5007509;28;20442;-73
2021/06/28 00:42:59;;;;;;;3.65;2.50;;;18.50;99.90;;;;;;5022311;28;20084;-74
2021/06/28 00:45:29;;;;;;;6.40;1.77;;;18.50;99.90;;;;;;5007086;28;20429;-76
2021/06/28 00:48:01;;;;;;;2.45;1.80;;;18.50;99.90;;;;;;5006866;28;20031;-72
2021/06/28 00:50:29;;;;;;;6.38;2.45;;;18.50;99.90;;;;;;5018037;28;20032;-74
2021/06/28 00:52:58;;;;;;;2.85;1.60;;;18.40;99.90;;;;;;5027157;28;20026;-74
2021/06/28 00:55:24;;;;;;;4.30;2.17;;;18.40;99.90;;;;;;5026595;28;20029;-74
2021/06/28 00:57:50;;;;;;;2.25;1.60;;;18.40;99.90;;;;;;5024793;28;20061;-73
2021/06/28 01:00:16;;;;;;;2.67;1.63;;;18.40;99.90;;;;;;5026926;28;20026;-72
2021/06/28 01:02:42;;;;;;;4.88;2.10;;;18.40;99.90;;;;;;5024811;28;20049;-75
2021/06/28 01:05:13;;;;;;;5.78;2.63;;;18.40;99.90;;;;;;5025558;28;20034;-74
2021/06/28 01:07:39;;;;;;;6.00;1.88;;;18.30;99.90;;;;;;5026967;28;20466;-75
2021/06/28 01:10:07;;;;;;;2.70;1.70;;;18.30;99.90;;;;;;5024059;28;20041;-74
2021/06/28 01:12:33;;;;;;;3.63;2.50;;;18.30;99.90;;;;;;5024927;28;20029;-74
2021/06/28 01:15:00;;;;;;;3.53;1.98;;;18.30;99.90;;;;;;5012508;28;20085;-73
2021/06/28 01:17:27;;;;;;;6.18;2.30;;;18.30;99.90;;;;;;5021868;28;20027;-73
2021/06/28 01:20:17;;;;;;;3.97;1.92;;;18.30;99.90;;;;;;5021571;28;20038;-76
2021/06/28 01:22:50;;;;;;;5.15;2.00;;;18.20;99.90;;;;;;5022107;28;20038;-75
2021/06/28 01:25:20;;;;;;;3.53;2.10;;;18.20;99.90;;;;;;5021492;28;20038;-75
2021/06/28 01:27:47;;;;;;;4.05;2.72;;;18.10;99.90;;;;;;5005625;28;20800;-74
2021/06/28 01:30:25;;;;;;;4.40;2.10;;;18.10;99.90;;;;;;5025074;28;20057;-73
2021/06/28 01:32:51;;;;;;;3.75;2.10;;;18.10;99.90;;;;;;5026107;28;20049;-74
2021/06/28 01:35:17;;;;;;;4.28;2.30;;;18.20;99.90;;;;;;5025879;28;20026;-76
2021/06/28 01:37:45;;;;;;;3.58;2.08;;;18.10;99.90;;;;;;5024915;28;20136;-74
2021/06/28 01:40:12;;;;;;;2.92;1.75;;;18.10;99.90;;;;;;5025792;28;20040;-75
2021/06/28 01:42:39;;;;;;;4.63;2.03;;;18.00;99.90;;;;;;5026186;28;20076;-74
2021/06/28 01:45:08;;;;;;;3.28;2.10;;;18.00;99.90;;;;;;5025966;28;20474;-74
2021/06/28 01:47:33;;;;;;;3.15;2.00;;;18.00;99.90;;;;;;5024310;28;20053;-73
2021/06/28 01:49:59;;;;;;;3.55;1.77;;;17.90;99.90;;;;;;5024537;28;20056;-72
2021/06/28 01:52:25;;;;;;;4.35;2.35;;;18.00;99.90;;;;;;5025602;28;20067;-74
2021/06/28 01:54:50;;;;;;;5.05;2.15;;;17.80;99.90;;;;;;5025361;28;20068;-72
2021/06/28 01:57:16;;;;;;;3.20;1.92;;;17.90;99.90;;;;;;5025729;28;20094;-71
2021/06/28 01:59:42;;;;;;;4.28;2.25;;;17.90;99.90;;;;;;5025060;28;20038;-73
2021/06/28 02:02:07;;;;;;;7.68;2.28;;;17.80;99.90;;;;;;5025122;28;20049;-74
2021/06/28 02:04:34;;;;;;;5.80;2.30;;;17.80;99.90;;;;;;5023631;28;20022;-73
2021/06/28 02:07:03;;;;;;;6.40;2.28;;;17.70;99.90;;;;;;5025200;28;20093;-73
2021/06/28 02:09:30;;;;;;;4.15;2.28;;;17.80;99.90;;;;;;5023703;28;20051;-75
2021/06/28 02:11:59;;;;;;;4.20;2.08;;;17.80;99.90;;;;;;5023789;28;20030;-75
2021/06/28 02:14:25;;;;;;;2.70;1.88;;;17.70;99.90;;;;;;5024896;28;20184;-73
2021/06/28 02:16:51;;;;;;;3.08;1.90;;;17.70;99.90;;;;;;5025287;28;20033;-71
2021/06/28 02:19:18;;;;;;;5.10;2.88;;;17.70;99.90;;;;;;5025298;28;20137;-74
2021/06/28 02:21:45;;;;;;;4.78;2.50;;;17.70;99.90;;;;;;5024761;28;20048;-73
2021/06/28 02:24:12;;;;;;;3.42;2.30;;;17.70;99.90;;;;;;5025334;28;20029;-73
2021/06/28 02:26:39;;;;;;;4.88;2.65;;;17.70;99.90;;;;;;5025272;28;20040;-72
2021/06/28 02:29:05;;;;;;;3.65;2.17;;;17.60;99.90;;;;;;5024981;28;20212;-72
2021/06/28 02:31:30;;;;;;;5.25;2.42;;;17.60;99.90;;;;;;5024943;28;20030;-72
2021/06/28 02:33:57;;;;;;;5.72;1.77;;;17.70;99.90;;;;;;5024656;28;20038;-72
2021/06/28 02:36:24;;;;;;;5.05;2.63;;;17.50;99.90;;;;;;5025194;28;20053;-71
2021/06/28 02:38:52;;;;;;;6.22;2.53;;;17.50;99.90;;;;;;5024757;28;20117;-74
2021/06/28 02:41:19;;;;;;;3.67;2.05;;;17.50;99.90;;;;;;5023340;28;20022;-72
2021/06/28 02:43:47;;;;;;;4.65;2.05;;;17.60;99.90;;;;;;5025016;28;20033;-75
2021/06/28 02:46:13;;;;;;;4.40;2.05;;;17.50;99.90;;;;;;5025183;28;20032;-73
2021/06/28 02:48:39;;;;;;;6.32;2.83;;;17.50;99.90;;;;;;5024258;28;20089;-75
2021/06/28 02:51:06;;;;;;;5.55;2.22;;;17.50;99.90;;;;;;5025149;28;20030;-75
2021/06/28 02:53:32;;;;;;;7.25;3.08;;;17.40;99.90;;;;;;5023557;28;20444;-74
2021/06/28 02:56:13;;;;;;;3.95;1.98;;;17.40;99.90;;;;;;5024650;28;20778;-74
2021/06/28 02:58:45;;;;;;;3.95;2.28;;;17.40;99.90;;;;;;5023301;28;20038;-74
2021/06/28 03:01:12;;;;;;;6.45;2.72;;;17.40;99.90;;;;;;5023494;28;20474;-74
2021/06/28 03:03:38;;;;;;;3.20;2.15;;;17.40;99.90;;;;;;5022809;28;20018;-73
2021/06/28 03:06:04;;;;;;;6.28;2.35;;;17.40;99.90;;;;;;5023501;28;20088;-75
2021/06/28 03:08:30;;;;;;;9.48;2.70;;;17.30;99.90;;;;;;5023898;28;20026;-73
2021/06/28 03:10:56;;;;;;;7.05;2.10;;;17.30;99.90;;;;;;5024318;28;20040;-71
2021/06/28 03:13:21;;;;;;;6.15;2.78;;;17.30;99.90;;;;;;5023867;28;20026;-74
2021/06/28 03:15:47;;;;;;;4.38;2.45;;;17.30;99.90;;;;;;5022916;28;20046;-74
2021/06/28 03:18:13;;;;;;;3.83;2.47;;;17.30;99.90;;;;;;5022763;28;20037;-74
2021/06/28 03:20:39;;;;;;;4.07;2.78;;;17.30;99.90;;;;;;5024152;28;20034;-73
2021/06/28 03:23:05;;;;;;;5.75;2.78;;;17.30;99.90;;;;;;5024030;28;20030;-74
2021/06/28 03:25:30;;;;;;;3.75;2.30;;;17.30;99.90;;;;;;5024578;28;20022;-74
2021/06/28 03:27:56;;;;;;;4.07;2.83;;;17.20;99.90;;;;;;5024459;28;20036;-74
2021/06/28 03:30:22;;;;;;;3.75;2.40;;;17.40;99.90;;;;;;5023614;28;20105;-72
2021/06/28 03:32:47;;;;;;;4.22;2.58;;;17.40;99.90;;;;;;5024100;28;20061;-73
2021/06/28 03:35:13;;;;;;;5.82;3.03;;;17.30;99.90;;;;;;5026929;28;20046;-74
2021/06/28 03:37:40;;;;;;;5.35;2.53;;;17.30;99.90;;;;;;5027561;28;20022;-74
2021/06/28 03:40:08;;;;;;;11.25;3.08;;;17.20;99.90;;;;;;5028149;28;20034;-74
2021/06/28 03:42:35;;;;;;;5.88;2.80;;;17.20;99.90;;;;;;5026541;28;20060;-73
2021/06/28 03:45:03;;;;;;;6.40;2.85;;;17.30;99.90;;;;;;5027642;28;20029;-74
2021/06/28 03:47:29;;;;;;;5.43;2.63;;;17.20;99.90;;;;;;5028465;28;20030;-73
2021/06/28 03:49:54;;;;;;;4.70;3.00;;;17.30;99.90;;;;;;5028132;28;20060;-74
2021/06/28 03:52:20;;;;;;;4.38;2.17;;;17.30;99.90;;;;;;5026517;28;20030;-73
2021/06/28 03:54:45;;;;;;;3.35;2.17;;;17.20;99.90;;;;;;5028514;28;20025;-73
2021/06/28 03:57:11;;;;;;;4.45;2.25;;;17.20;99.90;;;;;;5028266;28;20478;-74
2021/06/28 03:59:36;;;;;;;5.72;3.47;;;17.20;99.90;;;;;;5026384;28;20513;-74
2021/06/28 04:02:02;;;;;;;6.03;3.03;;;17.30;99.90;;;;;;5027285;28;20065;-74
2021/06/28 04:04:28;;;;;;;6.03;3.38;;;17.30;99.90;;;;;;5025985;28;20030;-72
2021/06/28 04:06:54;;;;;;;7.45;2.63;;;17.30;99.90;;;;;;5026685;28;20026;-74
2021/06/28 04:09:19;;;;;;;5.93;2.72;;;17.30;99.90;;;;;;5026453;28;20034;-74
2021/06/28 04:11:45;;;;;;;5.82;2.65;;;17.30;99.90;;;;;;5027485;28;20729;-76
2021/06/28 04:14:13;;;;;;;7.28;2.78;;;17.30;99.90;;;;;;5027650;28;20022;-73
2021/06/28 04:16:38;;;;;;;7.18;3.15;;;17.40;99.90;;;;;;5026032;28;20448;-75
2021/06/28 04:19:04;;;;;;;5.25;2.65;;;17.40;99.90;;;;;;5027567;28;20073;-72
2021/06/28 04:21:34;;;;;;;5.15;3.13;;;17.40;99.90;;;;;;5027546;28;20034;-75
2021/06/28 04:24:04;;;;;;;6.38;2.63;;;17.40;99.90;;;;;;5026061;28;20030;-74
2021/06/28 04:26:32;;;;;;;5.25;2.90;;;17.50;99.90;;;;;;5027141;28;20021;-72
2021/06/28 04:28:58;;;;;;;5.82;2.90;;;17.50;99.90;;;;;;5027510;28;20029;-72
2021/06/28 04:31:26;;;;;;;4.00;2.72;;;17.50;99.90;;;;;;5027048;28;20072;-73
2021/06/28 04:33:51;;;;;;;4.00;2.80;;;17.60;99.90;;;;;;5026354;28;20121;-74
2021/06/28 04:36:17;;;;;;;9.32;3.08;;;17.60;99.90;;;;;;5027474;28;20034;-75
2021/06/28 04:38:42;;;;;;;7.10;3.10;;;17.70;99.90;;;;;;5026069;28;20037;-72
2021/06/28 04:41:08;;;;;;;5.85;2.90;;;17.70;99.90;;;;;;5025536;28;20364;-73
2021/06/28 04:43:34;;;;;;;6.03;3.33;;;17.80;99.90;;;;;;5025612;28;20063;-73
2021/06/28 04:45:59;;;;;;;3.95;2.60;;;17.80;99.90;;;;;;5024156;28;20086;-73
2021/06/28 04:48:25;;;;;;;3.67;2.38;;;17.70;99.90;;;;;;5026883;28;20040;-74
2021/06/28 04:50:50;;;;;;;6.07;2.88;;;17.80;99.90;;;;;;5026572;28;20026;-71
2021/06/28 04:53:16;;;;;;;4.15;2.17;;;17.70;99.90;;;;;;5026957;28;20026;-74
2021/06/28 04:55:42;;;;;;;5.55;2.30;;;17.80;99.90;;;;;;5027051;28;20144;-75
2021/06/28 04:58:08;;;;;;;5.90;3.13;;;17.80;99.90;;;;;;5025584;28;20458;-73
2021/06/28 05:00:33;;;;;;;4.70;2.85;;;17.70;99.90;;;;;;5025078;28;20030;-72
2021/06/28 05:02:59;;;;;;;6.18;3.17;;;17.70;99.90;;;;;;5026540;28;20029;-73
2021/06/28 05:05:24;;;;;;;6.10;2.58;;;17.70;99.90;;;;;;5024995;28;20022;-73
2021/06/28 05:07:51;;;;;;;6.35;2.97;;;17.80;99.90;;;;;;5026814;28;20065;-72
2021/06/28 05:10:16;;;;;;;7.43;2.70;;;17.80;99.90;;;;;;5008822;28;20034;-72
2021/06/28 05:12:43;;;;;;;6.55;3.05;;;17.90;99.90;;;;;;5025771;28;20026;-73
2021/06/28 05:15:10;;;;;;;5.10;2.55;;;18.00;99.90;;;;;;5021842;28;20053;-75
2021/06/28 05:17:38;;;;;;;4.60;2.88;;;18.00;99.90;;;;;;5006771;28;20029;-75
2021/06/28 05:20:05;;;;;;;5.97;3.40;;;18.20;99.90;;;;;;5010427;28;20161;-73
2021/06/28 05:22:31;;;;;;;3.22;2.35;;;18.30;99.90;;;;;;5021216;28;20027;-72
2021/06/28 05:24:57;;;;;;;6.20;3.50;;;18.40;99.90;;;;;;5006517;28;20035;-71
2021/06/28 05:27:24;;;;;;;7.53;3.35;;;18.50;99.90;;;;;;5021663;28;20030;-72
2021/06/28 05:29:56;;;;;;;4.35;3.05;;;18.60;99.90;;;;;;5025329;28;20090;-73
2021/06/28 05:32:28;;;;;;;5.32;2.65;;;18.60;99.90;;;;;;5025100;28;20030;-72
2021/06/28 05:34:54;;;;;;;4.28;2.35;;;18.70;99.90;;;;;;5009857;28;20089;-73
2021/06/28 05:37:20;;;;;;;4.13;2.45;;;18.80;99.90;;;;;;5021572;28;20030;-73
2021/06/28 05:39:47;;;;;;;5.85;3.22;;;18.80;99.90;;;;;;5006291;28;20061;-75
2021/06/28 05:42:13;;;;;;;9.88;2.88;;;18.80;99.90;;;;;;5021135;28;20057;-75
2021/06/28 05:44:39;;;;;;;8.85;3.72;;;18.90;99.90;;;;;;5006038;28;20026;-75
2021/06/28 05:47:05;;;;;;;6.20;2.85;;;18.90;99.90;;;;;;5006433;28;20035;-74
2021/06/28 05:49:32;;;;;;;5.43;2.85;;;18.90;99.90;;;;;;5023729;28;20052;-73
2021/06/28 05:51:59;;;;;;;5.80;3.08;;;18.90;99.90;;;;;;5025781;28;20037;-75
2021/06/28 05:54:25;;;;;;;7.57;3.45;;;19.00;99.90;;;;;;5009277;28;20027;-75
2021/06/28 05:56:51;;;;;;;4.65;2.45;;;19.10;99.90;;;;;;5019932;28;20030;-73
2021/06/28 05:59:16;;;;;;;4.45;2.83;;;19.10;99.90;;;;;;5023263;28;20040;-74
2021/06/28 06:01:42;;;;;;;5.28;2.80;;;19.10;99.90;;;;;;5017584;28;20030;-74
2021/06/28 06:04:13;;;;;;;9.32;3.53;;;19.20;99.90;;;;;;5020427;28;20056;-72
2021/06/28 06:06:42;;;;;;;5.80;2.95;;;19.10;99.90;;;;;;5006238;28;20386;-74
2021/06/28 06:09:08;;;;;;;5.45;2.95;;;19.20;99.90;;;;;;5006361;28;20045;-73
2021/06/28 06:11:33;;;;;;;4.47;2.78;;;19.30;99.90;;;;;;5025034;28;20034;-74
2021/06/28 06:14:00;;;;;;;6.15;3.42;;;19.20;99.90;;;;;;5025226;28;20032;-75
2021/06/28 06:16:25;;;;;;;4.40;3.25;;;19.30;99.90;;;;;;5024551;28;20042;-75
2021/06/28 06:18:52;;;;;;;5.22;3.13;;;19.40;99.90;;;;;;5024743;28;20041;-73
2021/06/28 06:21:21;;;;;;;5.07;3.20;;;19.30;99.90;;;;;;5025348;28;20235;-73
2021/06/28 06:23:47;;;;;;;6.72;3.20;;;19.40;99.90;;;;;;5025366;28;20374;-73
2021/06/28 06:26:12;;;;;;;6.07;3.33;;;19.40;99.90;;;;;;5025030;28;20022;-71
2021/06/28 06:28:38;;;;;;;4.70;3.08;;;19.40;99.90;;;;;;5025510;28;20030;-73
2021/06/28 06:31:04;;;;;;;8.40;3.97;;;19.60;99.90;;;;;;5024688;28;20030;-73
2021/06/28 06:33:29;;;;;;;4.00;3.00;;;19.50;99.90;;;;;;5023672;28;20089;-72
2021/06/28 06:35:55;;;;;;;4.20;2.58;;;19.50;99.90;;;;;;5023896;28;20036;-72
2021/06/28 06:38:21;;;;;;;5.70;3.50;;;19.50;99.90;;;;;;5025099;28;20042;-73
2021/06/28 06:40:48;;;;;;;11.60;3.53;;;19.50;99.90;;;;;;5024389;28;20029;-74
2021/06/28 06:43:14;;;;;;;11.73;3.28;;;19.60;99.90;;;;;;5024890;28;20090;-74
2021/06/28 06:45:40;;;;;;;3.33;2.65;;;19.60;99.90;;;;;;5024669;28;20041;-73
2021/06/28 06:48:06;;;;;;;5.80;3.33;;;19.70;99.90;;;;;;5025041;28;20354;-73
2021/06/28 06:50:32;;;;;;;6.93;3.45;;;19.70;99.90;;;;;;5023998;28;20037;-73
2021/06/28 06:52:57;;;;;;;8.15;3.42;;;19.70;99.90;;;;;;5012528;28;20026;-74
2021/06/28 06:55:25;;;;;;;6.28;3.33;;;19.80;99.90;;;;;;5020334;28;20113;-73
2021/06/28 06:57:50;;;;;;;9.07;3.60;;;19.80;99.90;;;;;;5023095;28;20034;-73
2021/06/28 07:00:18;;;;;;;3.63;2.50;;;19.80;99.90;;;;;;5022362;28;20488;-75
2021/06/28 07:02:44;;;;;;;3.72;2.70;;;19.90;99.90;;;;;;5023890;28;20026;-74
2021/06/28 07:05:11;;;;;;;3.15;2.63;;;19.90;99.90;;;;;;5024987;28;20018;-73
2021/06/28 07:07:37;;;;;;;5.60;3.20;;;20.00;99.90;;;;;;5022581;28;20029;-73
2021/06/28 07:10:07;;;;;;;4.15;2.67;;;20.10;99.90;;;;;;5015999;28;20022;-72
2021/06/28 07:12:33;;;;;;;8.55;3.40;;;20.10;99.90;;;;;;5004740;28;20045;-75
2021/06/28 07:14:59;;;;;;;5.93;3.28;;;20.20;99.90;;;;;;5019512;28;20055;-74
2021/06/28 07:17:25;;;;;;;8.95;3.38;;;20.20;99.90;;;;;;5005106;28;20034;-74
2021/06/28 07:19:50;;;;;;;6.45;3.75;;;20.30;99.90;;;;;;5005147;28;20034;-73
2021/06/28 07:22:16;;;;;;;5.60;3.40;;;20.30;99.90;;;;;;5004928;28;20474;-74
2021/06/28 07:24:42;;;;;;;5.63;3.38;;;20.30;99.90;;;;;;5005019;28;20028;-74
2021/06/28 07:27:07;;;;;;;8.25;3.22;;;20.40;99.90;;;;;;5023224;28;20064;-75
2021/06/28 07:29:33;;;;;;;3.83;2.95;;;20.50;99.90;;;;;;5023976;28;20025;-73
2021/06/28 07:31:58;;;;;;;7.90;2.95;;;20.50;99.90;;;;;;5022123;28;20759;-72
2021/06/28 07:34:24;;;;;;;7.07;4.00;;;20.60;99.90;;;;;;5022715;28;20382;-74
2021/06/28 07:36:49;;;;;;;5.75;3.22;;;20.60;99.90;;;;;;5023800;28;20073;-73
2021/06/28 07:39:15;;;;;;;13.15;2.80;;;20.70;99.90;;;;;;5024250;28;20049;-75
2021/06/28 07:41:41;;;;;;;7.07;3.03;;;20.70;99.90;;;;;;5005813;28;20561;-71
2021/06/28 07:44:07;;;;;;;6.45;3.58;;;20.60;99.90;;;;;;5004641;28;20030;-73
2021/06/28 07:46:35;;;;;;;5.32;2.58;;;20.70;99.90;;;;;;5004150;28;20033;-72
2021/06/28 07:49:00;;;;;;;5.55;2.97;;;20.70;99.90;;;;;;5004352;28;20031;-72
2021/06/28 07:51:28;;;;;;;5.50;3.15;;;20.70;99.90;;;;;;5004045;28;20030;-72
2021/06/28 07:53:54;;;;;;;4.50;2.33;;;20.70;99.90;;;;;;5004514;28;20493;-73
2021/06/28 07:56:20;;;;;;;5.53;3.35;;;20.90;99.90;;;;;;5018975;28;20030;-75
2021/06/28 07:58:49;;;;;;;5.45;3.13;;;21.00;99.90;;;;;;5004351;28;20699;-73
2021/06/28 08:01:16;;;;;;;4.60;3.20;;;21.10;99.90;;;;;;5005047;28;20101;-75
2021/06/28 08:03:45;;;;;;;4.07;2.92;;;21.10;99.90;;;;;;5019727;28;20026;-74
2021/06/28 08:06:19;;;;;;;3.45;2.85;;;21.30;99.90;;;;;;5019779;28;20034;-73
2021/06/28 08:08:45;;;;;;;5.97;3.33;;;21.40;99.90;;;;;;5019738;28;20409;-73
2021/06/28 08:11:12;;;;;;;6.57;3.20;;;21.50;99.90;;;;;;5004033;28;20022;-73
2021/06/28 08:13:42;;;;;;;6.07;3.53;;;21.70;99.90;;;;;;5019858;28;20041;-74
2021/06/28 08:16:08;;;;;;;4.13;3.13;;;21.80;99.90;;;;;;5004299;28;20050;-73
2021/06/28 08:18:34;;;;;;;5.07;2.70;;;21.80;99.90;;;;;;5019188;28;20486;-76
2021/06/28 08:21:01;;;;;;;9.95;3.15;;;21.90;99.90;;;;;;5022825;28;20041;-74
2021/06/28 08:23:30;;;;;;;3.92;2.78;;;21.80;99.90;;;;;;5023257;28;20030;-74
2021/06/28 08:25:56;;;;;;;5.47;3.33;;;21.80;99.90;;;;;;5007509;28;20092;-74
2021/06/28 08:28:22;;;;;;;4.53;2.85;;;21.90;99.90;;;;;;5022830;28;20022;-74
2021/06/28 08:30:48;;;;;;;7.72;3.55;;;22.00;99.90;;;;;;5007356;28;20053;-74
2021/06/28 08:33:14;;;;;;;6.07;2.90;;;22.00;99.90;;;;;;5007935;28;20026;-71
2021/06/28 08:35:41;;;;;;;4.88;2.67;;;22.30;99.90;;;;;;5023207;28;20049;-75
2021/06/28 08:38:08;;;;;;;7.18;3.67;;;22.40;99.90;;;;;;5006988;28;20031;-72
2021/06/28 08:40:35;;;;;;;5.05;3.03;;;22.60;99.90;;;;;;5005799;28;20091;-75
2021/06/28 08:43:03;;;;;;;3.97;2.67;;;22.70;99.90;;;;;;5006874;28;20097;-74
2021/06/28 08:45:33;;;;;;;6.50;3.28;;;22.80;99.90;;;;;;5022010;28;20018;-76
2021/06/28 08:47:59;;;;;;;3.72;2.50;;;23.00;99.90;;;;;;5006726;28;20094;-75
2021/06/28 08:50:24;;;;;;;5.03;2.88;;;23.10;99.90;;;;;;5007599;28;20034;-74
2021/06/28 08:52:50;;;;;;;6.47;3.78;;;23.20;99.90;;;;;;5017083;28;20029;-72
2021/06/28 08:55:16;;;;;;;4.72;3.00;;;23.30;99.90;;;;;;5025738;28;20032;-76
2021/06/28 08:57:42;;;;;;;4.20;2.65;;;23.40;99.90;;;;;;5024822;28;20437;-74
2021/06/28 09:00:10;;;;;;;7.45;3.00;;;23.60;99.90;;;;;;5025352;28;20042;-75
2021/06/28 09:02:40;;;;;;;5.40;2.70;;;23.70;99.90;;;;;;5025571;28;20061;-72
2021/06/28 09:05:07;;;;;;;5.97;2.75;;;23.80;99.90;;;;;;5026980;28;20018;-72
2021/06/28 09:07:33;;;;;;;3.78;2.40;;;23.90;99.90;;;;;;5024342;28;20114;-75
2021/06/28 09:09:59;;;;;;;4.97;2.75;;;24.10;99.90;;;;;;5026236;28;20030;-74
2021/06/28 09:12:25;;;;;;;6.18;2.70;;;24.20;99.90;;;;;;5026590;28;20053;-74
2021/06/28 09:14:59;;;;;;;5.13;3.28;;;24.40;99.90;;;;;;5021019;28;20053;-73
2021/06/28 09:17:30;;;;;;;3.92;2.70;;;24.50;99.90;;;;;;5018321;28;20047;-77
2021/06/28 09:20:17;;;;;;;3.78;2.58;;;24.60;99.90;;;;;;5012808;28;20038;-73
2021/06/28 09:22:45;;;;;;;5.30;2.95;;;24.70;99.90;;;;;;5012176;28;20018;-73
2021/06/28 09:25:31;;;;;;;3.65;2.55;;;24.90;99.90;;;;;;5026124;28;20340;-74
2021/06/28 09:27:57;;;;;;;5.57;2.83;;;25.00;99.90;;;;;;5026150;28;20374;-73
2021/06/28 09:30:23;;;;;;;4.20;2.50;;;25.10;99.90;;;;;;5024949;28;20041;-75
2021/06/28 09:32:58;;;;;;;4.97;2.40;;;25.20;99.90;;;;;;5025639;28;20022;-71
2021/06/28 09:35:35;;;;;;;4.20;2.50;;;25.30;99.90;;;;;;5013675;28;20049;-72
2021/06/28 09:38:07;;;;;;;3.88;2.42;;;25.40;99.90;;;;;;5022237;28;20509;-72
2021/06/28 09:40:37;;;;;;;3.30;1.92;;;25.40;99.90;;;;;;5018876;28;20110;-73
2021/06/28 09:43:23;;;;;;;4.13;2.35;;;25.60;99.90;;;;;;5014907;28;20790;-73
2021/06/28 09:45:51;;;;;;;2.72;1.95;;;25.80;99.90;;;;;;5017474;28;20125;-73
2021/06/28 09:48:28;;;;;;;3.22;2.25;;;25.80;99.90;;;;;;5020718;28;20167;-74
2021/06/28 09:51:18;;;;;;;4.22;2.58;;;26.00;99.90;;;;;;5025634;28;20060;-75
2021/06/28 09:53:44;;;;;;;2.92;2.20;;;26.10;99.90;;;;;;5026130;28;20033;-70
2021/06/28 09:56:34;;;;;;;3.20;1.80;;;26.20;99.90;;;;;;5025585;28;20030;-73
2021/06/28 09:59:28;;;;;;;3.20;2.17;;;26.20;99.90;;;;;;5025599;28;20042;-73
2021/06/28 10:02:23;;;;;;;2.13;1.67;;;26.30;99.90;;;;;;5025591;28;20032;-71
2021/06/28 10:04:53;;;;;;;4.25;2.05;;;26.40;99.90;;;;;;5025722;28;20597;-71
2021/06/28 10:07:30;;;;;;;9.23;2.20;;;26.50;99.90;;;;;;5025400;28;20018;-74
2021/06/28 10:10:13;;;;;;;3.75;2.20;;;26.60;99.90;;;;;;5025430;28;20036;-69
2021/06/28 10:12:41;;;;;;;4.15;2.35;;;26.70;99.90;;;;;;5025710;28;20030;-71
2021/06/28 10:15:12;;;;;;;4.47;2.58;;;26.80;99.90;;;;;;5024390;28;20057;-71
2021/06/28 10:17:39;;;;;;;5.63;2.17;;;26.80;99.90;;;;;;5017877;28;20053;-71
2021/06/28 10:20:10;;;;;;;3.78;2.17;;;26.90;99.90;;;;;;5013512;28;20537;-72
2021/06/28 10:22:36;;;;;;;3.20;2.08;;;26.90;99.90;;;;;;5005192;28;20030;-70
2021/06/28 10:25:05;;;;;;;3.97;2.13;;;27.00;99.90;;;;;;5004917;28;20026;-72
2021/06/28 10:27:32;;;;;;;2.67;1.83;;;27.00;99.90;;;;;;5019996;28;20030;-72
2021/06/28 10:29:58;;;;;;;2.38;1.83;;;27.10;99.90;;;;;;5003741;28;20057;-72
2021/06/28 10:32:28;;;;;;;5.95;2.65;;;27.20;99.90;;;;;;5004864;28;20045;-73
2021/06/28 10:34:53;;;;;;;2.65;1.95;;;27.30;99.90;;;;;;5005377;28;20022;-72
2021/06/28 10:37:29;;;;;;;3.85;2.00;;;27.50;99.90;;;;;;5005049;28;20069;-70
2021/06/28 10:40:07;;;;;;;4.05;2.28;;;27.60;99.90;;;;;;5020656;28;20093;-71
2021/06/28 10:42:36;;;;;;;3.05;2.25;;;27.60;99.90;;;;;;5005153;28;20084;-70
2021/06/28 10:45:03;;;;;;;4.68;2.60;;;27.60;99.90;;;;;;5008696;28;20076;-71
2021/06/28 10:47:30;;;;;;;4.65;2.67;;;27.70;99.90;;;;;;5014816;28;20058;-71
2021/06/28 10:49:57;;;;;;;4.25;2.50;;;27.70;99.90;;;;;;5003763;28;20094;-72
2021/06/28 10:52:38;;;;;;;4.93;2.72;;;27.80;99.90;;;;;;5004388;28;20085;-73
2021/06/28 10:55:26;;;;;;;4.30;2.38;;;27.90;99.90;;;;;;5004873;28;20153;-73
2021/06/28 10:57:53;;;;;;;6.53;2.72;;;28.00;99.90;;;;;;4998391;28;20126;-71
2021/06/28 11:00:52;;;;;;;3.90;2.35;;;28.10;99.90;;;;;;5019733;28;20541;-73
2021/06/28 11:03:23;;;;;;;3.35;2.10;;;28.20;99.90;;;;;;5005132;28;20032;-73
2021/06/28 11:06:19;;;;;;;3.28;2.05;;;28.40;99.90;;;;;;5004093;28;20046;-75
2021/06/28 11:09:08;;;;;;;5.05;2.50;;;28.50;99.90;;;;;;5019809;28;20037;-74
2021/06/28 11:11:45;;;;;;;3.63;2.42;;;28.70;99.90;;;;;;5004726;28;20031;-71
2021/06/28 11:14:20;;;;;;;4.72;2.53;;;28.70;99.90;;;;;;5003902;28;20035;-71
2021/06/28 11:16:56;;;;;;;5.47;2.45;;;28.90;99.90;;;;;;5005067;28;20046;-70
2021/06/28 11:19:45;;;;;;;2.67;1.50;;;29.10;99.90;;;;;;5004339;28;20046;-74
2021/06/28 11:22:33;;;;;;;3.05;2.47;;;29.30;99.90;;;;;;5005002;28;20433;-74
2021/06/28 11:25:25;;;;;;;5.97;2.65;;;29.40;99.90;;;;;;5004524;28;20081;-71
2021/06/28 11:27:56;;;;;;;2.63;1.85;;;29.50;99.90;;;;;;5002418;28;20053;-74
2021/06/28 11:30:27;;;;;;;2.85;2.08;;;29.60;99.90;;;;;;5004956;28;20033;-71
2021/06/28 11:33:10;;;;;;;3.35;2.10;;;29.60;99.90;;;;;;5003838;28;20035;-70
2021/06/28 11:35:50;;;;;;;2.80;1.93;;;29.70;99.90;;;;;;5005055;28;20093;-71
2021/06/28 11:38:25;;;;;;;2.40;1.73;;;29.80;99.90;;;;;;5019271;28;20034;-71
2021/06/28 11:41:00;;;;;;;7.47;2.92;;;30.00;99.90;;;;;;5004484;28;20033;-71
2021/06/28 11:43:45;;;;;;;2.03;1.70;;;30.10;99.90;;;;;;5004921;28;20069;-73
2021/06/28 11:46:15;;;;;;;2.85;2.10;;;30.30;99.90;;;;;;5004341;28;20034;-74
2021/06/28 11:48:55;;;;;;;4.85;2.30;;;30.50;99.90;;;;;;5004516;28;20033;-76
2021/06/28 11:51:27;;;;;;;4.05;2.50;;;30.70;99.90;;;;;;5019788;28;20036;-73
2021/06/28 11:54:06;;;;;;;4.05;2.30;;;30.90;99.90;;;;;;5004551;28;20033;-75
2021/06/28 11:56:53;;;;;;;4.72;2.60;;;31.10;99.90;;;;;;5023681;28;20027;-74
2021/06/28 11:59:21;;;;;;;6.65;2.67;;;31.30;99.90;;;;;;5008165;28;20045;-71
2021/06/28 12:01:53;;;;;;;5.32;2.60;;;31.50;99.90;;;;;;5008236;28;20034;-72
2021/06/28 12:04:21;;;;;;;12.43;2.38;;;31.70;99.90;;;;;;5008570;28;20085;-73
2021/06/28 12:06:49;;;;;;;3.50;2.15;;;31.90;99.90;;;;;;5007954;28;20026;-76
2021/06/28 12:09:15;;;;;;;5.18;2.13;;;32.10;99.90;;;;;;5008316;28;20101;-73
2021/06/28 12:11:56;;;;;;;4.97;2.47;;;32.20;99.90;;;;;;5008198;28;20022;-71
2021/06/28 12:14:40;;;;;;;2.08;1.48;;;32.20;99.90;;;;;;5007710;28;20126;-71
2021/06/28 12:17:18;;;;;;;13.82;2.08;;;32.20;99.90;;;;;;5008372;28;20386;-75
2021/06/28 12:19:46;;;;;;;4.00;1.88;;;32.40;99.90;;;;;;5022979;28;20076;-75
2021/06/28 12:22:21;;;;;;;4.47;2.03;;;32.60;99.90;;;;;;5023003;28;20041;-71
2021/06/28 12:24:49;;;;;;;3.40;2.25;;;32.80;99.90;;;;;;5008329;28;20030;-72
2021/06/28 12:27:19;;;;;;;4.00;2.00;;;33.00;99.90;;;;;;5008054;28;20041;-70
2021/06/28 12:29:50;;;;;;;3.08;2.08;;;33.00;99.90;;;;;;5023153;28;20030;-71
2021/06/28 12:32:27;;;;;;;2.90;2.00;;;33.10;99.90;;;;;;5007370;28;20045;-78
2021/06/28 12:34:58;;;;;;;2.95;1.70;;;33.20;99.90;;;;;;5007471;28;20030;-73
2021/06/28 12:37:38;;;;;;;11.73;2.15;;;33.30;99.90;;;;;;5023085;28;20091;-72
2021/06/28 12:40:11;;;;;;;3.40;2.25;;;33.40;99.90;;;;;;5007686;28;20044;-74
2021/06/28 12:42:45;;;;;;;4.38;2.28;;;33.40;99.90;;;;;;5006845;28;20062;-71
2021/06/28 12:45:16;;;;;;;3.50;2.22;;;33.40;99.90;;;;;;5007988;28;20118;-72
2021/06/28 12:47:45;;;;;;;2.50;1.95;;;33.30;99.90;;;;;;5002753;28;20496;-74
2021/06/28 12:50:17;;;;;;;2.78;2.03;;;33.30;98.60;;;;;;4988304;28;20035;-74
2021/06/28 12:52:43;;;;;;;3.03;1.85;;;33.30;99.90;;;;;;4987856;28;20027;-72
2021/06/28 12:55:22;;;;;;;2.67;1.70;;;33.30;99.90;;;;;;4987959;28;20027;-73